ΕΜΥ, Εθνική Μετεωρολογική Υπηρεσία - Δελτία Καιρού, Προγνώσεις

ΑΕΡΟΝΑΥΤΙΛΙΑ

GREEK AIRPORTS CODES

LGBL 221150Z 09007KT 9999 FEW030 15/07 Q1020=

EUROPEAN AIRPORTS CODES

LFPO 221130Z 21017G30KT 180V240 8000 -RADZ BKN010 12/11Q0990 TEMPO 4000 RADZ BKN009=